Time,TemperatureF,DewpointF,PressureIn,WindDirection,WindDirectionDegrees,WindSpeedMPH,WindSpeedGustMPH,Humidity,HourlyPrecipIn,Conditions,Clouds,dailyrainin,SoftwareType,DateUTC
2013-07-17 00:11:00,77.0,72.0,-100.00,ESE,104,2.0,5.0,85,0.00,,,-99.99,,2013-07-17 05:11:00,
2013-07-17 00:22:00,77.0,72.0,-100.00,ESE,104,2.0,5.0,85,0.00,,,-99.99,,2013-07-17 05:22:00,
2013-07-17 00:32:00,77.0,72.0,-100.00,ESE,104,2.0,5.0,85,0.00,,,-99.99,,2013-07-17 05:32:00,
2013-07-17 00:43:00,77.0,72.0,-100.00,ESE,104,2.0,5.0,85,0.00,,,-99.99,,2013-07-17 05:43:00,
2013-07-17 01:11:00,75.0,72.0,-100.00,NNE,32,1.0,3.0,91,0.00,,,-99.99,,2013-07-17 06:11:00,
2013-07-17 01:22:00,75.0,72.0,-100.00,NNE,32,1.0,3.0,91,0.00,,,-99.99,,2013-07-17 06:22:00,
2013-07-17 01:32:00,75.0,72.0,-100.00,NNE,32,1.0,3.0,91,0.00,,,-99.99,,2013-07-17 06:32:00,
2013-07-17 01:43:00,75.0,72.0,-100.00,NNE,32,1.0,3.0,91,0.00,,,-99.99,,2013-07-17 06:43:00,
2013-07-17 02:11:00,74.0,72.0,-100.00,SSE,152,0.0,0.0,94,0.00,,,-99.99,,2013-07-17 07:11:00,
2013-07-17 02:22:00,74.0,72.0,-100.00,SSE,152,0.0,0.0,94,0.00,,,-99.99,,2013-07-17 07:22:00,
2013-07-17 02:32:00,74.0,72.0,-100.00,SSE,152,0.0,0.0,94,0.00,,,-99.99,,2013-07-17 07:32:00,
2013-07-17 02:42:00,74.0,72.0,-100.00,SSE,152,0.0,0.0,94,0.00,,,-99.99,,2013-07-17 07:42:00,
2013-07-17 03:11:00,74.0,72.0,-100.00,ENE,69,1.0,3.0,95,0.00,,,-99.99,,2013-07-17 08:11:00,
2013-07-17 03:22:00,74.0,72.0,-100.00,ENE,69,1.0,3.0,95,0.00,,,-99.99,,2013-07-17 08:22:00,
2013-07-17 03:32:00,74.0,72.0,-100.00,ENE,69,1.0,3.0,95,0.00,,,-99.99,,2013-07-17 08:32:00,
2013-07-17 03:43:00,74.0,72.0,-100.00,ENE,69,1.0,3.0,95,0.00,,,-99.99,,2013-07-17 08:43:00,
2013-07-17 04:12:00,74.0,72.0,-100.00,ENE,77,0.0,3.0,95,0.00,,,-99.99,,2013-07-17 09:12:00,
2013-07-17 04:22:00,74.0,72.0,-100.00,ENE,77,0.0,3.0,95,0.00,,,-99.99,,2013-07-17 09:22:00,
2013-07-17 04:32:00,74.0,72.0,-100.00,ENE,77,0.0,3.0,95,0.00,,,-99.99,,2013-07-17 09:32:00,
2013-07-17 04:43:00,74.0,72.0,-100.00,ENE,77,0.0,3.0,95,0.00,,,-99.99,,2013-07-17 09:43:00,
2013-07-17 05:11:00,74.0,73.0,-100.00,ENE,73,3.0,6.0,96,0.00,,,-99.99,,2013-07-17 10:11:00,
2013-07-17 05:22:00,74.0,73.0,-100.00,ENE,73,3.0,6.0,96,0.00,,,-99.99,,2013-07-17 10:22:00,
2013-07-17 05:32:00,74.0,73.0,-100.00,ENE,73,3.0,6.0,96,0.00,,,-99.99,,2013-07-17 10:32:00,
2013-07-17 05:43:00,74.0,73.0,-100.00,ENE,73,3.0,6.0,96,0.00,,,-99.99,,2013-07-17 10:43:00,
2013-07-17 06:11:00,74.0,72.0,-100.00,East,83,4.0,6.0,95,0.00,,,-99.99,,2013-07-17 11:11:00,
2013-07-17 06:22:00,74.0,72.0,-100.00,East,83,4.0,6.0,95,0.00,,,-99.99,,2013-07-17 11:22:00,
2013-07-17 06:32:00,74.0,72.0,-100.00,East,83,4.0,6.0,95,0.00,,,-99.99,,2013-07-17 11:32:00,
2013-07-17 06:42:00,74.0,72.0,-100.00,East,83,4.0,6.0,95,0.00,,,-99.99,,2013-07-17 11:42:00,
2013-07-17 07:12:00,75.0,73.0,-100.00,East,87,4.0,8.0,95,0.00,,,-99.99,,2013-07-17 12:12:00,
2013-07-17 07:22:00,75.0,73.0,-100.00,East,87,4.0,8.0,95,0.00,,,-99.99,,2013-07-17 12:22:00,
2013-07-17 07:32:00,75.0,73.0,-100.00,East,87,4.0,8.0,95,0.00,,,-99.99,,2013-07-17 12:32:00,
2013-07-17 07:42:00,75.0,73.0,-100.00,East,87,4.0,8.0,95,0.00,,,-99.99,,2013-07-17 12:42:00,
2013-07-17 08:12:00,76.0,73.0,-100.00,ENE,76,4.0,8.0,91,0.00,,,-99.99,,2013-07-17 13:12:00,
2013-07-17 08:22:00,76.0,73.0,-100.00,ENE,76,4.0,8.0,91,0.00,,,-99.99,,2013-07-17 13:22:00,
2013-07-17 08:32:00,76.0,73.0,-100.00,ENE,76,4.0,8.0,91,0.00,,,-99.99,,2013-07-17 13:32:00,
2013-07-17 08:43:00,76.0,73.0,-100.00,ENE,76,4.0,8.0,91,0.00,,,-99.99,,2013-07-17 13:43:00,
2013-07-17 09:11:00,78.0,73.0,-100.00,East,84,5.0,8.0,86,0.00,,,-99.99,,2013-07-17 14:11:00,
2013-07-17 09:22:00,78.0,73.0,-100.00,East,84,5.0,8.0,86,0.00,,,-99.99,,2013-07-17 14:22:00,
2013-07-17 09:32:00,78.0,73.0,-100.00,East,84,5.0,8.0,86,0.00,,,-99.99,,2013-07-17 14:32:00,
2013-07-17 09:43:00,78.0,73.0,-100.00,East,84,5.0,8.0,86,0.00,,,-99.99,,2013-07-17 14:43:00,
2013-07-17 10:12:00,81.0,73.0,-100.00,SE,127,6.0,10.0,78,0.00,,,-99.99,,2013-07-17 15:12:00,
2013-07-17 10:22:00,81.0,73.0,-100.00,SE,127,6.0,10.0,78,0.00,,,-99.99,,2013-07-17 15:22:00,
2013-07-17 10:32:00,81.0,73.0,-100.00,SE,127,6.0,10.0,78,0.00,,,-99.99,,2013-07-17 15:32:00,
2013-07-17 10:42:00,81.0,73.0,-100.00,SE,127,6.0,10.0,78,0.00,,,-99.99,,2013-07-17 15:42:00,
2013-07-17 12:11:00,86.0,70.0,-100.00,SE,127,6.0,10.0,60,-99.99,,,-99.99,,2013-07-17 17:11:00,
2013-07-17 12:22:00,86.0,70.0,-100.00,SE,127,6.0,10.0,60,-99.99,,,-99.99,,2013-07-17 17:22:00,
2013-07-17 12:32:00,86.0,70.0,-100.00,SE,127,6.0,10.0,60,-99.99,,,-99.99,,2013-07-17 17:32:00,
2013-07-17 12:43:00,86.0,70.0,-100.00,SE,127,6.0,10.0,60,-99.99,,,-99.99,,2013-07-17 17:43:00,
2013-07-17 13:11:00,89.0,70.0,-100.00,East,101,5.0,11.0,54,0.00,,,0.00,,2013-07-17 18:11:00,
2013-07-17 13:22:00,89.0,70.0,-100.00,East,101,5.0,11.0,54,0.00,,,0.00,,2013-07-17 18:22:00,
2013-07-17 13:32:00,89.0,70.0,-100.00,East,101,5.0,11.0,54,0.00,,,0.00,,2013-07-17 18:32:00,
2013-07-17 13:43:00,89.0,70.0,-100.00,East,101,5.0,11.0,54,0.00,,,0.00,,2013-07-17 18:43:00,
2013-07-17 14:11:00,91.0,69.0,-100.00,ESE,107,6.0,12.0,48,0.00,,,0.00,,2013-07-17 19:11:00,
2013-07-17 14:22:00,91.0,69.0,-100.00,ESE,107,6.0,12.0,48,0.00,,,0.00,,2013-07-17 19:22:00,
2013-07-17 14:32:00,91.0,69.0,-100.00,ESE,107,6.0,12.0,48,0.00,,,0.00,,2013-07-17 19:32:00,
2013-07-17 14:43:00,91.0,69.0,-100.00,ESE,107,6.0,12.0,48,0.00,,,0.00,,2013-07-17 19:43:00,
2013-07-17 15:11:00,92.0,69.0,-100.00,ESE,115,6.0,12.0,48,0.00,,,0.00,,2013-07-17 20:11:00,
2013-07-17 15:22:00,92.0,69.0,-100.00,ESE,115,6.0,12.0,48,0.00,,,0.00,,2013-07-17 20:22:00,
2013-07-17 15:33:00,92.0,69.0,-100.00,ESE,115,6.0,12.0,48,0.00,,,0.00,,2013-07-17 20:33:00,
2013-07-17 15:43:00,92.0,69.0,-100.00,ESE,115,6.0,12.0,48,0.00,,,0.00,,2013-07-17 20:43:00,
2013-07-17 16:12:00,93.0,68.0,-100.00,SE,125,5.0,9.0,45,0.00,,,0.00,,2013-07-17 21:12:00,
2013-07-17 16:22:00,93.0,68.0,-100.00,SE,125,5.0,9.0,45,0.00,,,0.00,,2013-07-17 21:22:00,
2013-07-17 16:32:00,93.0,68.0,-100.00,SE,125,5.0,9.0,45,0.00,,,0.00,,2013-07-17 21:32:00,
2013-07-17 16:42:00,93.0,68.0,-100.00,SE,125,5.0,9.0,45,0.00,,,0.00,,2013-07-17 21:42:00,
2013-07-17 17:11:00,93.0,68.0,-100.00,East,93,6.0,10.0,44,0.00,,,0.00,,2013-07-17 22:11:00,
2013-07-17 17:22:00,93.0,68.0,-100.00,East,93,6.0,10.0,44,0.00,,,0.00,,2013-07-17 22:22:00,
2013-07-17 17:32:00,93.0,68.0,-100.00,East,93,6.0,10.0,44,0.00,,,0.00,,2013-07-17 22:32:00,
2013-07-17 17:43:00,93.0,68.0,-100.00,East,93,6.0,10.0,44,0.00,,,0.00,,2013-07-17 22:43:00,
2013-07-17 18:11:00,90.0,70.0,-100.00,ESE,104,4.0,7.0,52,0.00,,,0.00,,2013-07-17 23:11:00,
2013-07-17 18:22:00,90.0,70.0,-100.00,ESE,104,4.0,7.0,52,0.00,,,0.00,,2013-07-17 23:22:00,
2013-07-17 18:32:00,90.0,70.0,-100.00,ESE,104,4.0,7.0,52,0.00,,,0.00,,2013-07-17 23:32:00,
2013-07-17 18:43:00,90.0,70.0,-100.00,ESE,104,4.0,7.0,52,0.00,,,0.00,,2013-07-17 23:43:00,
2013-07-17 19:11:00,92.0,71.0,-100.00,East,100,3.0,6.0,50,0.00,,,0.00,,2013-07-18 00:11:00,
2013-07-17 19:22:00,92.0,71.0,-100.00,East,100,3.0,6.0,50,0.00,,,0.00,,2013-07-18 00:22:00,
2013-07-17 19:33:00,92.0,71.0,-100.00,East,100,3.0,6.0,50,0.00,,,0.00,,2013-07-18 00:33:00,
2013-07-17 19:43:00,92.0,71.0,-100.00,East,100,3.0,6.0,50,0.00,,,0.00,,2013-07-18 00:43:00,
2013-07-17 20:11:00,86.0,72.0,-100.00,NE,40,3.0,5.0,63,0.00,,,0.00,,2013-07-18 01:11:00,
2013-07-17 20:22:00,86.0,72.0,-100.00,NE,40,3.0,5.0,63,0.00,,,0.00,,2013-07-18 01:22:00,
2013-07-17 20:32:00,86.0,72.0,-100.00,NE,40,3.0,5.0,63,0.00,,,0.00,,2013-07-18 01:32:00,
2013-07-17 20:43:00,86.0,72.0,-100.00,NE,40,3.0,5.0,63,0.00,,,0.00,,2013-07-18 01:43:00,
2013-07-17 21:11:00,81.0,74.0,-100.00,NW,312,0.0,0.0,80,0.00,,,0.00,,2013-07-18 02:11:00,
2013-07-17 21:22:00,81.0,74.0,-100.00,NW,312,0.0,0.0,80,0.00,,,0.00,,2013-07-18 02:22:00,
2013-07-17 21:32:00,81.0,74.0,-100.00,NW,312,0.0,0.0,80,0.00,,,0.00,,2013-07-18 02:32:00,
2013-07-17 21:43:00,81.0,74.0,-100.00,NW,312,0.0,0.0,80,0.00,,,0.00,,2013-07-18 02:43:00,
2013-07-17 22:11:00,79.0,74.0,-100.00,SE,142,3.0,6.0,84,0.00,,,0.00,,2013-07-18 03:11:00,
2013-07-17 22:22:00,79.0,74.0,-100.00,SE,142,3.0,6.0,84,0.00,,,0.00,,2013-07-18 03:22:00,
2013-07-17 22:32:00,79.0,74.0,-100.00,SE,142,3.0,6.0,84,0.00,,,0.00,,2013-07-18 03:32:00,
2013-07-17 22:43:00,79.0,74.0,-100.00,SE,142,3.0,6.0,84,0.00,,,0.00,,2013-07-18 03:43:00,
2013-07-17 23:12:00,78.0,74.0,-100.00,SW,215,0.0,2.0,87,0.00,,,0.00,,2013-07-18 04:12:00,
2013-07-17 23:22:00,78.0,74.0,-100.00,SW,215,0.0,2.0,87,0.00,,,0.00,,2013-07-18 04:22:00,
2013-07-17 23:32:00,78.0,74.0,-100.00,SW,215,0.0,2.0,87,0.00,,,0.00,,2013-07-18 04:32:00,
2013-07-17 23:43:00,78.0,74.0,-100.00,SW,215,0.0,2.0,87,0.00,,,0.00,,2013-07-18 04:43:00,